sensor_id;sensor_type;location;lat;lon;timestamp;temperature;humidity
17988;DHT22;9119;50.932;5.342;2023-07-16T00:01:44;19.80;99.90
17988;DHT22;9119;50.932;5.342;2023-07-16T00:04:09;19.70;99.90
17988;DHT22;9119;50.932;5.342;2023-07-16T00:06:35;19.70;99.90
17988;DHT22;9119;50.932;5.342;2023-07-16T00:09:01;19.60;99.90
17988;DHT22;9119;50.932;5.342;2023-07-16T00:11:27;19.60;99.90
17988;DHT22;9119;50.932;5.342;2023-07-16T00:13:52;19.60;99.90
17988;DHT22;9119;50.932;5.342;2023-07-16T00:16:18;19.50;99.90
17988;DHT22;9119;50.932;5.342;2023-07-16T00:18:47;19.50;99.90
17988;DHT22;9119;50.932;5.342;2023-07-16T00:21:12;19.50;99.90
17988;DHT22;9119;50.932;5.342;2023-07-16T00:23:38;19.40;99.90
17988;DHT22;9119;50.932;5.342;2023-07-16T00:26:04;19.40;99.90
17988;DHT22;9119;50.932;5.342;2023-07-16T00:28:30;19.50;99.90
17988;DHT22;9119;50.932;5.342;2023-07-16T00:30:55;19.40;99.90
17988;DHT22;9119;50.932;5.342;2023-07-16T00:33:21;19.30;99.90
17988;DHT22;9119;50.932;5.342;2023-07-16T00:35:50;19.20;99.90
17988;DHT22;9119;50.932;5.342;2023-07-16T00:38:19;19.10;99.90
17988;DHT22;9119;50.932;5.342;2023-07-16T00:40:45;19.30;99.90
17988;DHT22;9119;50.932;5.342;2023-07-16T00:43:11;19.40;99.90
17988;DHT22;9119;50.932;5.342;2023-07-16T00:45:38;19.50;99.90
17988;DHT22;9119;50.932;5.342;2023-07-16T00:48:05;19.50;99.90
17988;DHT22;9119;50.932;5.342;2023-07-16T00:50:32;19.40;99.90
17988;DHT22;9119;50.932;5.342;2023-07-16T00:53:02;19.10;99.90
17988;DHT22;9119;50.932;5.342;2023-07-16T00:55:29;19.20;99.90
17988;DHT22;9119;50.932;5.342;2023-07-16T00:57:58;19.20;99.90
17988;DHT22;9119;50.932;5.342;2023-07-16T01:00:25;19.30;99.90
17988;DHT22;9119;50.932;5.342;2023-07-16T01:02:51;19.30;99.90
17988;DHT22;9119;50.932;5.342;2023-07-16T01:05:17;19.30;99.90
17988;DHT22;9119;50.932;5.342;2023-07-16T01:07:52;19.10;99.90
17988;DHT22;9119;50.932;5.342;2023-07-16T01:10:21;19.20;99.90
17988;DHT22;9119;50.932;5.342;2023-07-16T01:12:47;19.20;99.90
17988;DHT22;9119;50.932;5.342;2023-07-16T01:15:14;19.20;99.90
17988;DHT22;9119;50.932;5.342;2023-07-16T01:17:39;19.50;99.90
17988;DHT22;9119;50.932;5.342;2023-07-16T01:20:05;19.50;99.90
17988;DHT22;9119;50.932;5.342;2023-07-16T01:28:46;19.00;99.90
17988;DHT22;9119;50.932;5.342;2023-07-16T01:31:17;19.10;99.90
17988;DHT22;9119;50.932;5.342;2023-07-16T01:33:43;19.00;99.90
17988;DHT22;9119;50.932;5.342;2023-07-16T01:36:09;19.00;99.90
17988;DHT22;9119;50.932;5.342;2023-07-16T01:38:36;18.90;99.90
17988;DHT22;9119;50.932;5.342;2023-07-16T01:41:02;18.80;99.90
17988;DHT22;9119;50.932;5.342;2023-07-16T01:43:28;18.80;99.90
17988;DHT22;9119;50.932;5.342;2023-07-16T01:45:54;18.70;99.90
17988;DHT22;9119;50.932;5.342;2023-07-16T01:50:57;18.70;99.90
17988;DHT22;9119;50.932;5.342;2023-07-16T01:53:23;18.70;99.90
17988;DHT22;9119;50.932;5.342;2023-07-16T01:55:48;18.60;99.90
17988;DHT22;9119;50.932;5.342;2023-07-16T01:58:14;18.70;99.90
17988;DHT22;9119;50.932;5.342;2023-07-16T02:00:40;18.70;99.90
17988;DHT22;9119;50.932;5.342;2023-07-16T02:03:05;18.70;99.90
17988;DHT22;9119;50.932;5.342;2023-07-16T02:05:31;18.90;99.90
17988;DHT22;9119;50.932;5.342;2023-07-16T02:07:57;18.80;99.90
17988;DHT22;9119;50.932;5.342;2023-07-16T02:10:22;19.00;99.90
17988;DHT22;9119;50.932;5.342;2023-07-16T02:12:48;19.00;99.90
17988;DHT22;9119;50.932;5.342;2023-07-16T02:15:14;19.00;99.90
17988;DHT22;9119;50.932;5.342;2023-07-16T02:17:41;18.90;99.90
17988;DHT22;9119;50.932;5.342;2023-07-16T02:20:07;18.90;99.90
17988;DHT22;9119;50.932;5.342;2023-07-16T02:22:34;19.00;99.90
17988;DHT22;9119;50.932;5.342;2023-07-16T02:25:01;19.10;99.90
17988;DHT22;9119;50.932;5.342;2023-07-16T02:27:27;19.30;99.90
17988;DHT22;9119;50.932;5.342;2023-07-16T02:29:53;19.20;99.90
17988;DHT22;9119;50.932;5.342;2023-07-16T02:32:18;19.20;99.90
17988;DHT22;9119;50.932;5.342;2023-07-16T02:34:44;19.20;99.90
17988;DHT22;9119;50.932;5.342;2023-07-16T02:37:10;19.30;99.90
17988;DHT22;9119;50.932;5.342;2023-07-16T02:39:35;19.00;99.90
17988;DHT22;9119;50.932;5.342;2023-07-16T02:42:01;19.00;99.90
17988;DHT22;9119;50.932;5.342;2023-07-16T02:44:27;19.00;99.90
17988;DHT22;9119;50.932;5.342;2023-07-16T02:46:52;18.90;99.90
17988;DHT22;9119;50.932;5.342;2023-07-16T02:49:18;18.90;99.90
17988;DHT22;9119;50.932;5.342;2023-07-16T02:51:44;18.80;99.90
17988;DHT22;9119;50.932;5.342;2023-07-16T02:54:09;18.70;99.90
17988;DHT22;9119;50.932;5.342;2023-07-16T02:56:35;18.70;99.90
17988;DHT22;9119;50.932;5.342;2023-07-16T02:59:01;18.60;99.90
17988;DHT22;9119;50.932;5.342;2023-07-16T03:01:26;18.50;99.90
17988;DHT22;9119;50.932;5.342;2023-07-16T03:03:52;18.50;99.90
17988;DHT22;9119;50.932;5.342;2023-07-16T03:06:17;18.40;99.90
17988;DHT22;9119;50.932;5.342;2023-07-16T03:08:43;18.30;99.90
17988;DHT22;9119;50.932;5.342;2023-07-16T03:11:11;18.20;99.90
17988;DHT22;9119;50.932;5.342;2023-07-16T03:13:36;18.10;99.90
17988;DHT22;9119;50.932;5.342;2023-07-16T03:16:02;18.10;99.90
17988;DHT22;9119;50.932;5.342;2023-07-16T03:18:29;18.20;99.90
17988;DHT22;9119;50.932;5.342;2023-07-16T03:20:56;18.10;99.90
17988;DHT22;9119;50.932;5.342;2023-07-16T03:23:22;18.00;99.90
17988;DHT22;9119;50.932;5.342;2023-07-16T03:25:48;17.90;99.90
17988;DHT22;9119;50.932;5.342;2023-07-16T03:28:13;17.90;99.90
17988;DHT22;9119;50.932;5.342;2023-07-16T03:30:39;18.00;99.90
17988;DHT22;9119;50.932;5.342;2023-07-16T03:33:05;17.90;99.90
17988;DHT22;9119;50.932;5.342;2023-07-16T03:35:31;18.00;99.90
17988;DHT22;9119;50.932;5.342;2023-07-16T03:37:57;18.00;99.90
17988;DHT22;9119;50.932;5.342;2023-07-16T03:40:26;18.00;99.90
17988;DHT22;9119;50.932;5.342;2023-07-16T03:42:52;18.00;99.90
17988;DHT22;9119;50.932;5.342;2023-07-16T03:45:19;18.00;99.90
17988;DHT22;9119;50.932;5.342;2023-07-16T03:47:45;17.90;99.90
17988;DHT22;9119;50.932;5.342;2023-07-16T03:50:11;17.90;99.90
17988;DHT22;9119;50.932;5.342;2023-07-16T03:52:36;17.80;99.90
17988;DHT22;9119;50.932;5.342;2023-07-16T03:55:02;17.60;99.90
17988;DHT22;9119;50.932;5.342;2023-07-16T03:57:29;17.60;99.90
17988;DHT22;9119;50.932;5.342;2023-07-16T03:59:55;17.60;99.90
17988;DHT22;9119;50.932;5.342;2023-07-16T04:02:20;17.60;99.90
17988;DHT22;9119;50.932;5.342;2023-07-16T04:04:46;17.50;99.90
17988;DHT22;9119;50.932;5.342;2023-07-16T04:07:12;17.50;99.90
17988;DHT22;9119;50.932;5.342;2023-07-16T04:09:38;17.60;99.90
17988;DHT22;9119;50.932;5.342;2023-07-16T04:12:06;17.60;99.90
17988;DHT22;9119;50.932;5.342;2023-07-16T04:14:32;17.60;99.90
17988;DHT22;9119;50.932;5.342;2023-07-16T04:16:58;17.50;99.90
17988;DHT22;9119;50.932;5.342;2023-07-16T04:19:24;17.50;99.90
17988;DHT22;9119;50.932;5.342;2023-07-16T04:21:49;17.50;99.90
17988;DHT22;9119;50.932;5.342;2023-07-16T04:24:15;17.50;99.90
17988;DHT22;9119;50.932;5.342;2023-07-16T04:26:41;17.60;99.90
17988;DHT22;9119;50.932;5.342;2023-07-16T04:29:06;17.60;99.90
17988;DHT22;9119;50.932;5.342;2023-07-16T04:31:32;17.70;99.90
17988;DHT22;9119;50.932;5.342;2023-07-16T04:33:58;17.70;99.90
17988;DHT22;9119;50.932;5.342;2023-07-16T04:36:23;17.70;99.90
17988;DHT22;9119;50.932;5.342;2023-07-16T04:38:49;17.70;99.90
17988;DHT22;9119;50.932;5.342;2023-07-16T04:41:16;17.70;99.90
17988;DHT22;9119;50.932;5.342;2023-07-16T04:43:42;17.70;99.90
17988;DHT22;9119;50.932;5.342;2023-07-16T04:46:07;17.70;99.90
17988;DHT22;9119;50.932;5.342;2023-07-16T04:48:33;17.80;99.90
17988;DHT22;9119;50.932;5.342;2023-07-16T04:50:59;17.80;99.90
17988;DHT22;9119;50.932;5.342;2023-07-16T04:53:25;17.80;99.90
17988;DHT22;9119;50.932;5.342;2023-07-16T04:55:50;17.80;99.90
17988;DHT22;9119;50.932;5.342;2023-07-16T04:58:16;17.80;99.90
17988;DHT22;9119;50.932;5.342;2023-07-16T05:00:42;17.80;99.90
17988;DHT22;9119;50.932;5.342;2023-07-16T05:03:08;17.70;99.90
17988;DHT22;9119;50.932;5.342;2023-07-16T05:05:34;17.80;99.90
17988;DHT22;9119;50.932;5.342;2023-07-16T05:08:01;17.80;99.90
17988;DHT22;9119;50.932;5.342;2023-07-16T05:10:27;17.60;99.90
17988;DHT22;9119;50.932;5.342;2023-07-16T05:12:53;17.60;99.90
17988;DHT22;9119;50.932;5.342;2023-07-16T05:15:19;17.70;99.90
17988;DHT22;9119;50.932;5.342;2023-07-16T05:17:45;17.80;99.90
17988;DHT22;9119;50.932;5.342;2023-07-16T05:20:11;17.80;99.90
17988;DHT22;9119;50.932;5.342;2023-07-16T05:22:37;17.80;99.90
17988;DHT22;9119;50.932;5.342;2023-07-16T05:25:03;17.80;99.90
17988;DHT22;9119;50.932;5.342;2023-07-16T05:27:29;17.70;99.90
17988;DHT22;9119;50.932;5.342;2023-07-16T05:29:54;17.70;99.90
17988;DHT22;9119;50.932;5.342;2023-07-16T05:32:21;17.80;99.90
17988;DHT22;9119;50.932;5.342;2023-07-16T05:34:47;17.90;99.90
17988;DHT22;9119;50.932;5.342;2023-07-16T05:37:13;18.00;99.90
17988;DHT22;9119;50.932;5.342;2023-07-16T05:39:39;17.90;99.90
17988;DHT22;9119;50.932;5.342;2023-07-16T05:42:05;17.90;99.90
17988;DHT22;9119;50.932;5.342;2023-07-16T05:44:31;18.00;99.90
17988;DHT22;9119;50.932;5.342;2023-07-16T05:46:57;17.90;99.90
17988;DHT22;9119;50.932;5.342;2023-07-16T05:49:24;17.90;99.90
17988;DHT22;9119;50.932;5.342;2023-07-16T05:51:51;18.10;99.90
17988;DHT22;9119;50.932;5.342;2023-07-16T05:54:17;18.10;99.90
17988;DHT22;9119;50.932;5.342;2023-07-16T05:56:43;18.10;99.90
17988;DHT22;9119;50.932;5.342;2023-07-16T05:59:09;18.10;99.90
17988;DHT22;9119;50.932;5.342;2023-07-16T06:01:35;18.80;99.90
17988;DHT22;9119;50.932;5.342;2023-07-16T06:04:01;19.30;99.90
17988;DHT22;9119;50.932;5.342;2023-07-16T06:06:28;18.80;99.90
17988;DHT22;9119;50.932;5.342;2023-07-16T06:08:54;18.80;99.90
17988;DHT22;9119;50.932;5.342;2023-07-16T06:11:19;19.10;99.90
17988;DHT22;9119;50.932;5.342;2023-07-16T06:13:46;19.00;99.90
17988;DHT22;9119;50.932;5.342;2023-07-16T06:16:11;18.70;99.90
17988;DHT22;9119;50.932;5.342;2023-07-16T06:18:37;18.60;99.90
17988;DHT22;9119;50.932;5.342;2023-07-16T06:21:03;19.00;99.90
17988;DHT22;9119;50.932;5.342;2023-07-16T06:23:29;19.50;99.90
17988;DHT22;9119;50.932;5.342;2023-07-16T06:25:57;19.40;99.90
17988;DHT22;9119;50.932;5.342;2023-07-16T06:28:23;19.20;99.90
17988;DHT22;9119;50.932;5.342;2023-07-16T06:30:50;19.10;99.90
17988;DHT22;9119;50.932;5.342;2023-07-16T06:33:17;19.10;99.90
17988;DHT22;9119;50.932;5.342;2023-07-16T06:35:45;19.00;99.90
17988;DHT22;9119;50.932;5.342;2023-07-16T06:38:11;19.00;99.90
17988;DHT22;9119;50.932;5.342;2023-07-16T06:40:37;19.00;99.90
17988;DHT22;9119;50.932;5.342;2023-07-16T06:43:03;19.20;99.90
17988;DHT22;9119;50.932;5.342;2023-07-16T06:45:28;19.30;99.90
17988;DHT22;9119;50.932;5.342;2023-07-16T06:47:54;19.20;99.90
17988;DHT22;9119;50.932;5.342;2023-07-16T06:50:20;19.10;99.90
17988;DHT22;9119;50.932;5.342;2023-07-16T06:52:45;19.30;99.90
17988;DHT22;9119;50.932;5.342;2023-07-16T06:55:11;19.20;99.90
17988;DHT22;9119;50.932;5.342;2023-07-16T06:57:37;19.10;99.90
17988;DHT22;9119;50.932;5.342;2023-07-16T07:00:03;19.30;99.90
17988;DHT22;9119;50.932;5.342;2023-07-16T07:02:29;19.50;99.90
17988;DHT22;9119;50.932;5.342;2023-07-16T07:04:55;19.60;99.90
17988;DHT22;9119;50.932;5.342;2023-07-16T07:07:20;19.30;99.90
17988;DHT22;9119;50.932;5.342;2023-07-16T07:09:49;19.40;99.90
17988;DHT22;9119;50.932;5.342;2023-07-16T07:12:15;19.30;99.90
17988;DHT22;9119;50.932;5.342;2023-07-16T07:14:40;19.20;99.90
17988;DHT22;9119;50.932;5.342;2023-07-16T07:17:06;19.40;99.90
17988;DHT22;9119;50.932;5.342;2023-07-16T07:19:32;19.60;99.90
17988;DHT22;9119;50.932;5.342;2023-07-16T07:21:58;19.50;99.90
17988;DHT22;9119;50.932;5.342;2023-07-16T07:24:23;19.50;99.90
17988;DHT22;9119;50.932;5.342;2023-07-16T07:26:49;19.60;99.90
17988;DHT22;9119;50.932;5.342;2023-07-16T07:29:15;19.80;99.90
17988;DHT22;9119;50.932;5.342;2023-07-16T07:31:41;20.10;99.90
17988;DHT22;9119;50.932;5.342;2023-07-16T07:34:06;20.00;99.90
17988;DHT22;9119;50.932;5.342;2023-07-16T07:36:32;20.00;99.90
17988;DHT22;9119;50.932;5.342;2023-07-16T07:38:58;20.00;99.90
17988;DHT22;9119;50.932;5.342;2023-07-16T07:41:24;20.10;99.90
17988;DHT22;9119;50.932;5.342;2023-07-16T07:43:50;20.10;99.90
17988;DHT22;9119;50.932;5.342;2023-07-16T07:46:17;20.20;99.90
17988;DHT22;9119;50.932;5.342;2023-07-16T07:48:43;20.20;99.90
17988;DHT22;9119;50.932;5.342;2023-07-16T07:51:08;20.10;99.90
17988;DHT22;9119;50.932;5.342;2023-07-16T07:53:34;20.00;99.90
17988;DHT22;9119;50.932;5.342;2023-07-16T07:56:00;20.20;99.90
17988;DHT22;9119;50.932;5.342;2023-07-16T07:58:25;20.30;99.90
17988;DHT22;9119;50.932;5.342;2023-07-16T08:00:51;20.30;99.90
17988;DHT22;9119;50.932;5.342;2023-07-16T08:03:17;20.50;99.90
17988;DHT22;9119;50.932;5.342;2023-07-16T08:05:42;20.30;99.90
17988;DHT22;9119;50.932;5.342;2023-07-16T08:08:08;20.20;99.90
17988;DHT22;9119;50.932;5.342;2023-07-16T08:10:34;20.20;99.90
17988;DHT22;9119;50.932;5.342;2023-07-16T08:13:00;20.50;99.90
17988;DHT22;9119;50.932;5.342;2023-07-16T08:15:25;20.70;99.90
17988;DHT22;9119;50.932;5.342;2023-07-16T08:17:51;21.00;99.90
17988;DHT22;9119;50.932;5.342;2023-07-16T08:20:17;21.20;99.90
17988;DHT22;9119;50.932;5.342;2023-07-16T08:22:42;21.30;99.90
17988;DHT22;9119;50.932;5.342;2023-07-16T08:25:08;21.20;99.90
17988;DHT22;9119;50.932;5.342;2023-07-16T08:27:34;21.20;99.90
17988;DHT22;9119;50.932;5.342;2023-07-16T08:30:00;20.90;99.90
17988;DHT22;9119;50.932;5.342;2023-07-16T08:32:25;20.70;99.90
17988;DHT22;9119;50.932;5.342;2023-07-16T08:34:51;20.90;99.90
17988;DHT22;9119;50.932;5.342;2023-07-16T08:37:17;21.10;99.90
17988;DHT22;9119;50.932;5.342;2023-07-16T08:39:43;20.90;99.90
17988;DHT22;9119;50.932;5.342;2023-07-16T08:42:09;20.90;99.90
17988;DHT22;9119;50.932;5.342;2023-07-16T08:44:39;21.00;99.90
17988;DHT22;9119;50.932;5.342;2023-07-16T08:47:06;21.10;99.90
17988;DHT22;9119;50.932;5.342;2023-07-16T08:49:34;21.20;99.90
17988;DHT22;9119;50.932;5.342;2023-07-16T08:52:01;21.30;99.90
17988;DHT22;9119;50.932;5.342;2023-07-16T08:54:27;21.40;99.90
17988;DHT22;9119;50.932;5.342;2023-07-16T08:56:53;21.70;99.90
17988;DHT22;9119;50.932;5.342;2023-07-16T08:59:19;21.90;99.90
17988;DHT22;9119;50.932;5.342;2023-07-16T09:01:47;21.80;99.90
17988;DHT22;9119;50.932;5.342;2023-07-16T09:04:14;21.70;99.90
17988;DHT22;9119;50.932;5.342;2023-07-16T09:06:40;21.70;99.90
17988;DHT22;9119;50.932;5.342;2023-07-16T09:09:06;21.90;99.90
17988;DHT22;9119;50.932;5.342;2023-07-16T09:11:33;22.10;99.90
17988;DHT22;9119;50.932;5.342;2023-07-16T09:14:01;22.10;99.90
17988;DHT22;9119;50.932;5.342;2023-07-16T09:16:32;22.30;99.90
17988;DHT22;9119;50.932;5.342;2023-07-16T09:19:11;22.40;99.90
17988;DHT22;9119;50.932;5.342;2023-07-16T09:21:39;22.40;99.90
17988;DHT22;9119;50.932;5.342;2023-07-16T09:24:08;22.20;99.90
17988;DHT22;9119;50.932;5.342;2023-07-16T09:26:37;22.60;99.90
17988;DHT22;9119;50.932;5.342;2023-07-16T09:29:06;23.00;99.90
17988;DHT22;9119;50.932;5.342;2023-07-16T09:31:32;23.20;99.90
17988;DHT22;9119;50.932;5.342;2023-07-16T09:33:58;22.90;99.90
17988;DHT22;9119;50.932;5.342;2023-07-16T09:36:27;22.50;99.90
17988;DHT22;9119;50.932;5.342;2023-07-16T09:38:57;22.70;99.90
17988;DHT22;9119;50.932;5.342;2023-07-16T09:41:24;22.90;99.90
17988;DHT22;9119;50.932;5.342;2023-07-16T09:43:50;23.30;99.90
17988;DHT22;9119;50.932;5.342;2023-07-16T09:46:15;23.30;99.90
17988;DHT22;9119;50.932;5.342;2023-07-16T09:48:41;22.90;99.90
17988;DHT22;9119;50.932;5.342;2023-07-16T09:51:07;22.90;99.90
17988;DHT22;9119;50.932;5.342;2023-07-16T09:53:35;22.90;99.90
17988;DHT22;9119;50.932;5.342;2023-07-16T09:56:03;22.70;99.90
17988;DHT22;9119;50.932;5.342;2023-07-16T09:58:30;22.80;99.90
17988;DHT22;9119;50.932;5.342;2023-07-16T10:00:57;22.80;99.90
17988;DHT22;9119;50.932;5.342;2023-07-16T10:03:23;22.80;99.90
17988;DHT22;9119;50.932;5.342;2023-07-16T10:05:49;22.90;99.90
17988;DHT22;9119;50.932;5.342;2023-07-16T10:08:18;23.00;99.90
17988;DHT22;9119;50.932;5.342;2023-07-16T10:10:49;22.80;99.90
17988;DHT22;9119;50.932;5.342;2023-07-16T10:13:22;23.40;99.90
17988;DHT22;9119;50.932;5.342;2023-07-16T10:15:55;23.50;99.90
17988;DHT22;9119;50.932;5.342;2023-07-16T10:18:25;23.20;99.90
17988;DHT22;9119;50.932;5.342;2023-07-16T10:20:53;23.30;99.90
17988;DHT22;9119;50.932;5.342;2023-07-16T10:23:18;23.10;99.90
17988;DHT22;9119;50.932;5.342;2023-07-16T10:26:01;22.90;99.90
17988;DHT22;9119;50.932;5.342;2023-07-16T10:28:34;23.00;99.90
17988;DHT22;9119;50.932;5.342;2023-07-16T10:31:00;23.10;99.90
17988;DHT22;9119;50.932;5.342;2023-07-16T10:33:26;23.00;99.90
17988;DHT22;9119;50.932;5.342;2023-07-16T10:35:52;22.90;99.90
17988;DHT22;9119;50.932;5.342;2023-07-16T10:38:18;23.00;99.90
17988;DHT22;9119;50.932;5.342;2023-07-16T10:40:45;23.10;99.90
17988;DHT22;9119;50.932;5.342;2023-07-16T10:43:11;23.20;99.90
17988;DHT22;9119;50.932;5.342;2023-07-16T10:45:37;22.70;99.90
17988;DHT22;9119;50.932;5.342;2023-07-16T10:48:04;22.80;99.90
17988;DHT22;9119;50.932;5.342;2023-07-16T10:50:32;22.80;99.90
17988;DHT22;9119;50.932;5.342;2023-07-16T10:52:59;23.10;99.90
17988;DHT22;9119;50.932;5.342;2023-07-16T10:55:27;23.40;99.90
17988;DHT22;9119;50.932;5.342;2023-07-16T10:57:53;23.60;99.90
17988;DHT22;9119;50.932;5.342;2023-07-16T11:00:21;23.90;99.90
17988;DHT22;9119;50.932;5.342;2023-07-16T11:02:48;23.90;99.90
17988;DHT22;9119;50.932;5.342;2023-07-16T11:05:15;23.70;99.90
17988;DHT22;9119;50.932;5.342;2023-07-16T11:07:48;23.60;99.90
17988;DHT22;9119;50.932;5.342;2023-07-16T11:10:17;23.40;99.90
17988;DHT22;9119;50.932;5.342;2023-07-16T11:12:44;23.30;99.90
17988;DHT22;9119;50.932;5.342;2023-07-16T11:15:10;23.00;99.90
17988;DHT22;9119;50.932;5.342;2023-07-16T11:17:39;23.10;99.90
17988;DHT22;9119;50.932;5.342;2023-07-16T11:20:07;23.20;99.90
17988;DHT22;9119;50.932;5.342;2023-07-16T11:22:38;23.40;99.90
17988;DHT22;9119;50.932;5.342;2023-07-16T11:25:10;23.30;99.90
17988;DHT22;9119;50.932;5.342;2023-07-16T11:27:36;23.40;99.90
17988;DHT22;9119;50.932;5.342;2023-07-16T11:30:02;23.50;99.90
17988;DHT22;9119;50.932;5.342;2023-07-16T11:32:36;23.40;99.90
17988;DHT22;9119;50.932;5.342;2023-07-16T11:35:03;23.20;99.90
17988;DHT22;9119;50.932;5.342;2023-07-16T11:37:31;22.90;99.90
17988;DHT22;9119;50.932;5.342;2023-07-16T11:40:07;23.10;99.90
17988;DHT22;9119;50.932;5.342;2023-07-16T11:42:38;23.50;99.90
17988;DHT22;9119;50.932;5.342;2023-07-16T11:45:05;24.30;99.90
17988;DHT22;9119;50.932;5.342;2023-07-16T11:47:31;24.30;99.90
17988;DHT22;9119;50.932;5.342;2023-07-16T11:49:57;24.10;99.90
17988;DHT22;9119;50.932;5.342;2023-07-16T11:52:28;23.80;99.90
17988;DHT22;9119;50.932;5.342;2023-07-16T11:54:55;23.70;99.90
17988;DHT22;9119;50.932;5.342;2023-07-16T11:57:21;23.70;99.90
17988;DHT22;9119;50.932;5.342;2023-07-16T11:59:47;23.70;99.90
17988;DHT22;9119;50.932;5.342;2023-07-16T12:02:13;23.80;99.90
17988;DHT22;9119;50.932;5.342;2023-07-16T12:04:39;24.10;99.90
17988;DHT22;9119;50.932;5.342;2023-07-16T12:07:04;24.00;99.90
17988;DHT22;9119;50.932;5.342;2023-07-16T12:09:30;23.90;99.90
17988;DHT22;9119;50.932;5.342;2023-07-16T12:11:57;24.10;99.90
17988;DHT22;9119;50.932;5.342;2023-07-16T12:14:22;24.20;99.90
17988;DHT22;9119;50.932;5.342;2023-07-16T12:16:48;24.20;99.90
17988;DHT22;9119;50.932;5.342;2023-07-16T12:19:14;24.20;99.90
17988;DHT22;9119;50.932;5.342;2023-07-16T12:21:42;24.40;99.90
17988;DHT22;9119;50.932;5.342;2023-07-16T12:24:08;24.50;99.90
17988;DHT22;9119;50.932;5.342;2023-07-16T12:26:33;24.60;99.90
17988;DHT22;9119;50.932;5.342;2023-07-16T12:29:00;25.10;99.90
17988;DHT22;9119;50.932;5.342;2023-07-16T12:31:29;25.10;99.90
17988;DHT22;9119;50.932;5.342;2023-07-16T12:33:55;24.90;99.90
17988;DHT22;9119;50.932;5.342;2023-07-16T12:36:20;24.90;99.90
17988;DHT22;9119;50.932;5.342;2023-07-16T12:38:46;25.00;99.90
17988;DHT22;9119;50.932;5.342;2023-07-16T12:41:11;25.20;99.90
17988;DHT22;9119;50.932;5.342;2023-07-16T12:43:37;25.10;99.90
17988;DHT22;9119;50.932;5.342;2023-07-16T12:46:04;25.10;99.90
17988;DHT22;9119;50.932;5.342;2023-07-16T12:48:30;25.10;99.90
17988;DHT22;9119;50.932;5.342;2023-07-16T12:50:56;24.80;99.90
17988;DHT22;9119;50.932;5.342;2023-07-16T12:53:22;24.50;99.90
17988;DHT22;9119;50.932;5.342;2023-07-16T12:55:48;24.60;99.90
17988;DHT22;9119;50.932;5.342;2023-07-16T12:58:14;25.30;99.90
17988;DHT22;9119;50.932;5.342;2023-07-16T13:00:40;26.50;99.90
17988;DHT22;9119;50.932;5.342;2023-07-16T13:03:06;27.40;99.90
17988;DHT22;9119;50.932;5.342;2023-07-16T13:05:34;27.70;99.90
17988;DHT22;9119;50.932;5.342;2023-07-16T13:07:59;26.70;99.90
17988;DHT22;9119;50.932;5.342;2023-07-16T13:10:25;25.60;99.90
17988;DHT22;9119;50.932;5.342;2023-07-16T13:12:50;25.50;99.90
17988;DHT22;9119;50.932;5.342;2023-07-16T13:15:16;25.30;99.90
17988;DHT22;9119;50.932;5.342;2023-07-16T13:17:42;25.20;99.90
17988;DHT22;9119;50.932;5.342;2023-07-16T13:20:08;24.80;99.90
17988;DHT22;9119;50.932;5.342;2023-07-16T13:22:35;24.70;99.90
17988;DHT22;9119;50.932;5.342;2023-07-16T13:25:01;25.30;99.90
17988;DHT22;9119;50.932;5.342;2023-07-16T13:27:26;25.30;99.90
17988;DHT22;9119;50.932;5.342;2023-07-16T13:29:52;25.20;99.90
17988;DHT22;9119;50.932;5.342;2023-07-16T13:32:18;24.60;99.90
17988;DHT22;9119;50.932;5.342;2023-07-16T13:34:43;24.40;99.90
17988;DHT22;9119;50.932;5.342;2023-07-16T13:37:10;24.50;99.90
17988;DHT22;9119;50.932;5.342;2023-07-16T13:39:41;24.30;99.90
17988;DHT22;9119;50.932;5.342;2023-07-16T13:42:07;24.10;99.90
17988;DHT22;9119;50.932;5.342;2023-07-16T13:44:33;24.00;99.90
17988;DHT22;9119;50.932;5.342;2023-07-16T13:46:59;24.10;99.90
17988;DHT22;9119;50.932;5.342;2023-07-16T13:49:24;24.60;99.90
17988;DHT22;9119;50.932;5.342;2023-07-16T13:51:50;24.60;99.90
17988;DHT22;9119;50.932;5.342;2023-07-16T13:54:16;25.00;99.90
17988;DHT22;9119;50.932;5.342;2023-07-16T13:56:41;24.90;99.90
17988;DHT22;9119;50.932;5.342;2023-07-16T13:59:07;24.80;99.90
17988;DHT22;9119;50.932;5.342;2023-07-16T14:01:37;24.50;99.90
17988;DHT22;9119;50.932;5.342;2023-07-16T14:04:03;24.30;99.90
17988;DHT22;9119;50.932;5.342;2023-07-16T14:06:30;24.30;99.90
17988;DHT22;9119;50.932;5.342;2023-07-16T14:08:55;24.40;99.90
17988;DHT22;9119;50.932;5.342;2023-07-16T14:11:22;24.30;99.90
17988;DHT22;9119;50.932;5.342;2023-07-16T14:13:48;24.20;99.90
17988;DHT22;9119;50.932;5.342;2023-07-16T14:16:20;24.70;99.90
17988;DHT22;9119;50.932;5.342;2023-07-16T14:18:50;25.40;99.90
17988;DHT22;9119;50.932;5.342;2023-07-16T14:21:15;26.00;99.90
17988;DHT22;9119;50.932;5.342;2023-07-16T14:23:41;26.50;99.90
17988;DHT22;9119;50.932;5.342;2023-07-16T14:26:07;26.60;99.90
17988;DHT22;9119;50.932;5.342;2023-07-16T14:28:32;27.00;99.90
17988;DHT22;9119;50.932;5.342;2023-07-16T14:30:58;26.90;99.90
17988;DHT22;9119;50.932;5.342;2023-07-16T14:33:24;27.10;99.90
17988;DHT22;9119;50.932;5.342;2023-07-16T14:35:50;27.10;99.90
17988;DHT22;9119;50.932;5.342;2023-07-16T14:38:15;26.80;99.90
17988;DHT22;9119;50.932;5.342;2023-07-16T14:40:41;27.10;99.90
17988;DHT22;9119;50.932;5.342;2023-07-16T14:43:07;26.80;99.90
17988;DHT22;9119;50.932;5.342;2023-07-16T14:45:34;26.80;99.90
17988;DHT22;9119;50.932;5.342;2023-07-16T14:48:01;26.50;99.90
17988;DHT22;9119;50.932;5.342;2023-07-16T14:50:26;26.30;99.90
17988;DHT22;9119;50.932;5.342;2023-07-16T14:52:53;25.80;99.90
17988;DHT22;9119;50.932;5.342;2023-07-16T14:55:19;25.80;99.90
17988;DHT22;9119;50.932;5.342;2023-07-16T14:57:44;25.80;99.90
17988;DHT22;9119;50.932;5.342;2023-07-16T15:00:11;26.30;99.90
17988;DHT22;9119;50.932;5.342;2023-07-16T15:02:39;26.30;99.90
17988;DHT22;9119;50.932;5.342;2023-07-16T15:05:04;25.90;99.90
17988;DHT22;9119;50.932;5.342;2023-07-16T15:07:30;25.30;99.90
17988;DHT22;9119;50.932;5.342;2023-07-16T15:09:57;25.40;99.90
17988;DHT22;9119;50.932;5.342;2023-07-16T15:12:22;25.60;99.90
17988;DHT22;9119;50.932;5.342;2023-07-16T15:14:48;25.60;99.90
17988;DHT22;9119;50.932;5.342;2023-07-16T15:17:14;25.60;99.90
17988;DHT22;9119;50.932;5.342;2023-07-16T15:19:39;25.60;99.90
17988;DHT22;9119;50.932;5.342;2023-07-16T15:22:06;25.40;99.90
17988;DHT22;9119;50.932;5.342;2023-07-16T15:24:32;25.30;99.90
17988;DHT22;9119;50.932;5.342;2023-07-16T15:26:58;25.10;99.90
17988;DHT22;9119;50.932;5.342;2023-07-16T15:29:24;25.10;99.90
17988;DHT22;9119;50.932;5.342;2023-07-16T15:31:50;25.10;99.90
17988;DHT22;9119;50.932;5.342;2023-07-16T15:34:15;25.20;99.90
17988;DHT22;9119;50.932;5.342;2023-07-16T15:36:41;25.00;99.90
17988;DHT22;9119;50.932;5.342;2023-07-16T15:39:07;24.60;99.90
17988;DHT22;9119;50.932;5.342;2023-07-16T15:41:33;24.40;99.90
17988;DHT22;9119;50.932;5.342;2023-07-16T15:43:59;24.40;99.90
17988;DHT22;9119;50.932;5.342;2023-07-16T15:46:25;24.60;99.90
17988;DHT22;9119;50.932;5.342;2023-07-16T15:48:50;24.60;99.90